createdAt,value
2023-03-03T00:01:11.606Z,100078.75
2023-03-03T00:03:39.410Z,100069.63
2023-03-03T00:06:11.227Z,100071.91
2023-03-03T00:08:39.600Z,100069.06
2023-03-03T00:11:08.694Z,100068.91
2023-03-03T00:13:45.804Z,100071.88
2023-03-03T00:16:23.162Z,100072.63
2023-03-03T00:18:51.559Z,100083.25
2023-03-03T00:21:41.970Z,100079.13
2023-03-03T00:24:18.744Z,100082.56
2023-03-03T00:26:48.995Z,100076.06
2023-03-03T00:29:32.228Z,100080.31
2023-03-03T00:32:16.928Z,100080.47
2023-03-03T00:34:45.895Z,100088.31
2023-03-03T00:37:26.699Z,100093.31
2023-03-03T00:39:54.291Z,100090.78
2023-03-03T00:42:24.427Z,100103.66
2023-03-03T00:44:57.816Z,100092.00
2023-03-03T00:47:31.261Z,100097.91
2023-03-03T00:50:25.982Z,100100.75
2023-03-03T00:53:01.632Z,100102.06
2023-03-03T00:55:29.491Z,100100.69
2023-03-03T00:57:58.929Z,100102.44
2023-03-03T01:00:26.888Z,100108.63
2023-03-03T01:02:54.566Z,100109.06
2023-03-03T01:05:22.692Z,100102.38
2023-03-03T01:07:50.436Z,100104.72
2023-03-03T01:10:18.303Z,100098.56
2023-03-03T01:12:46.178Z,100102.50
2023-03-03T01:15:16.031Z,100103.78
2023-03-03T01:17:44.318Z,100097.81
2023-03-03T01:20:14.421Z,100097.66
2023-03-03T01:22:42.406Z,100105.72
2023-03-03T01:25:11.163Z,100094.69
2023-03-03T01:27:38.826Z,100104.53
2023-03-03T01:30:07.619Z,100105.19
2023-03-03T01:32:36.633Z,100111.31
2023-03-03T01:35:04.708Z,100107.59
2023-03-03T01:37:34.700Z,100100.63
2023-03-03T01:40:02.499Z,100100.34
2023-03-03T01:42:30.782Z,100098.00
2023-03-03T01:45:17.682Z,100112.06
2023-03-03T01:47:52.442Z,100103.31
2023-03-03T01:50:45.423Z,100108.81
2023-03-03T01:53:17.033Z,100105.28
2023-03-03T01:55:46.078Z,100100.63
2023-03-03T01:58:19.547Z,100099.78
2023-03-03T02:00:51.505Z,100091.44
2023-03-03T02:03:22.240Z,100096.66
2023-03-03T02:05:50.651Z,100093.84
2023-03-03T02:08:22.783Z,100090.03
2023-03-03T02:10:51.984Z,100092.66
2023-03-03T02:13:19.677Z,100084.47
2023-03-03T02:15:47.490Z,100084.19
2023-03-03T02:18:17.804Z,100086.72
2023-03-03T02:20:57.834Z,100081.03
2023-03-03T02:23:30.948Z,100095.81
2023-03-03T02:26:09.824Z,100094.97
2023-03-03T02:28:39.451Z,100094.69
2023-03-03T02:31:10.894Z,100097.47
2023-03-03T02:33:38.627Z,100097.28
2023-03-03T02:36:06.822Z,100088.91
2023-03-03T02:38:42.228Z,100087.63
2023-03-03T02:41:17.632Z,100095.31
2023-03-03T02:43:52.367Z,100092.81
2023-03-03T02:46:20.188Z,100091.41
2023-03-03T02:48:47.902Z,100096.78
2023-03-03T02:51:15.626Z,100094.53
2023-03-03T02:53:43.274Z,100095.34
2023-03-03T02:56:12.420Z,100089.78
2023-03-03T02:58:40.064Z,100092.69
2023-03-03T03:01:08.054Z,100089.81
2023-03-03T03:03:35.685Z,100086.38
2023-03-03T03:06:03.586Z,100095.56
2023-03-03T03:08:31.374Z,100093.09
2023-03-03T03:10:58.982Z,100089.75
2023-03-03T03:13:28.536Z,100087.78
2023-03-03T03:15:56.423Z,100095.00
2023-03-03T03:18:24.148Z,100094.84
2023-03-03T03:20:51.752Z,100098.41
2023-03-03T03:23:21.924Z,100091.69
2023-03-03T03:25:49.928Z,100098.38
2023-03-03T03:28:18.768Z,100098.91
2023-03-03T03:30:47.800Z,100092.56
2023-03-03T03:33:15.419Z,100082.13
2023-03-03T03:35:45.691Z,100093.63
2023-03-03T03:38:13.662Z,100097.34
2023-03-03T03:40:41.945Z,100102.91
2023-03-03T03:43:09.790Z,100098.47
2023-03-03T03:45:37.483Z,100103.09
2023-03-03T03:48:07.050Z,100098.28
2023-03-03T03:50:34.870Z,100112.94
2023-03-03T03:53:02.595Z,100094.56
2023-03-03T03:55:30.245Z,100097.69
2023-03-03T03:57:58.525Z,100093.06
2023-03-03T04:00:26.576Z,100106.06
2023-03-03T04:02:54.399Z,100106.56
2023-03-03T04:05:23.634Z,100106.97
2023-03-03T04:07:51.603Z,100104.38
2023-03-03T04:10:19.365Z,100114.16
2023-03-03T04:12:47.174Z,100115.25
2023-03-03T04:15:16.024Z,100113.59
2023-03-03T04:17:43.999Z,100117.28
2023-03-03T04:20:15.376Z,100107.53
2023-03-03T04:22:44.596Z,100102.19
2023-03-03T04:25:15.342Z,100102.53
2023-03-03T04:27:44.276Z,100101.59
2023-03-03T04:30:13.724Z,100105.31
2023-03-03T04:32:41.962Z,100105.38
2023-03-03T04:35:10.984Z,100104.38
2023-03-03T04:37:39.464Z,100115.19
2023-03-03T04:40:10.461Z,100118.28
2023-03-03T04:42:38.411Z,100114.09
2023-03-03T04:45:07.129Z,100106.97
2023-03-03T04:47:34.941Z,100113.28
2023-03-03T04:50:02.561Z,100118.56
2023-03-03T04:52:30.368Z,100111.75
2023-03-03T04:54:58.068Z,100118.00
2023-03-03T04:57:27.136Z,100121.03
2023-03-03T04:59:55.006Z,100122.81
2023-03-03T05:02:22.972Z,100117.78
2023-03-03T05:04:50.627Z,100124.94
2023-03-03T05:07:20.172Z,100127.19
2023-03-03T05:09:47.910Z,100131.28
2023-03-03T05:12:16.096Z,100130.34
2023-03-03T05:14:45.172Z,100127.75
2023-03-03T05:17:12.842Z,100129.09
2023-03-03T05:19:41.466Z,100135.03
2023-03-03T05:22:13.233Z,100138.56
2023-03-03T05:24:42.869Z,100142.72
2023-03-03T05:27:11.884Z,100137.47
2023-03-03T05:29:40.138Z,100147.63
2023-03-03T05:32:09.404Z,100147.63
2023-03-03T05:34:37.284Z,100144.81
2023-03-03T05:37:06.887Z,100148.47
2023-03-03T05:39:35.095Z,100154.22
2023-03-03T05:42:03.564Z,100149.47
2023-03-03T05:44:32.670Z,100155.44
2023-03-03T05:47:00.447Z,100157.31
2023-03-03T05:49:29.628Z,100163.09
2023-03-03T05:51:57.292Z,100167.91
2023-03-03T05:54:25.066Z,100172.47
2023-03-03T05:56:52.866Z,100177.75
2023-03-03T05:59:21.108Z,100184.44
2023-03-03T06:01:48.710Z,100181.09
2023-03-03T06:04:16.336Z,100177.59
2023-03-03T06:06:45.408Z,100173.94
2023-03-03T06:09:13.089Z,100174.38
2023-03-03T06:11:40.725Z,100170.88
2023-03-03T06:14:08.349Z,100181.09
2023-03-03T06:16:36.130Z,100178.13
2023-03-03T06:19:03.858Z,100179.75
2023-03-03T06:21:31.506Z,100176.59
2023-03-03T06:24:00.533Z,100188.72
2023-03-03T06:26:28.253Z,100180.50
2023-03-03T06:28:55.892Z,100180.47
2023-03-03T06:31:23.588Z,100169.94
2023-03-03T06:33:51.433Z,100183.56
2023-03-03T06:36:20.814Z,100181.50
2023-03-03T06:38:48.936Z,100185.69
2023-03-03T06:41:18.204Z,100190.91
2023-03-03T06:43:46.408Z,100182.03
2023-03-03T06:46:14.222Z,100190.00
2023-03-03T06:48:41.957Z,100196.78
2023-03-03T06:51:23.324Z,100200.59
2023-03-03T06:53:53.789Z,100208.75
2023-03-03T06:56:23.174Z,100209.69
2023-03-03T06:58:51.543Z,100221.72
2023-03-03T07:01:19.390Z,100229.94
2023-03-03T07:03:47.442Z,100232.59
2023-03-03T07:06:23.882Z,100233.03
2023-03-03T07:08:52.857Z,100237.00
2023-03-03T07:11:24.181Z,100235.28
2023-03-03T07:13:53.498Z,100237.38
2023-03-03T07:16:26.417Z,100236.84
2023-03-03T07:18:55.804Z,100243.28
2023-03-03T07:21:26.620Z,100246.19
2023-03-03T07:23:54.936Z,100239.41
2023-03-03T07:26:28.907Z,100239.75
2023-03-03T07:28:59.561Z,100248.56
2023-03-03T07:31:35.110Z,100246.44
2023-03-03T07:34:05.249Z,100244.00
2023-03-03T07:36:36.838Z,100255.19
2023-03-03T07:39:15.476Z,100251.66
2023-03-03T07:41:44.624Z,100251.56
2023-03-03T07:44:20.175Z,100259.50
2023-03-03T07:46:50.506Z,100257.25
2023-03-03T07:49:23.808Z,100259.75
2023-03-03T07:51:55.271Z,100255.81
2023-03-03T07:54:32.913Z,100265.50
2023-03-03T07:57:19.914Z,100264.38
2023-03-03T07:59:49.650Z,100267.63
2023-03-03T08:02:36.077Z,100260.19
2023-03-03T08:05:34.796Z,100263.19
2023-03-03T08:08:29.320Z,100264.75
2023-03-03T08:10:57.936Z,100253.16
2023-03-03T08:13:31.732Z,100255.00
2023-03-03T08:16:02.989Z,100263.94
2023-03-03T08:18:36.135Z,100265.13
2023-03-03T08:21:04.336Z,100265.50
2023-03-03T08:23:31.955Z,100267.28
2023-03-03T08:25:59.633Z,100272.28
2023-03-03T08:28:28.977Z,100279.19
2023-03-03T08:31:13.004Z,100282.53
2023-03-03T08:33:44.595Z,100285.75
2023-03-03T08:36:13.036Z,100288.84
2023-03-03T08:38:41.215Z,100293.22
2023-03-03T08:41:08.931Z,100291.81
2023-03-03T08:43:38.210Z,100289.16
2023-03-03T08:46:07.625Z,100299.00
2023-03-03T08:48:35.296Z,100289.22
2023-03-03T08:51:03.446Z,100302.69
2023-03-03T08:53:33.560Z,100303.50
2023-03-03T08:56:01.224Z,100293.84
2023-03-03T08:58:35.064Z,100292.25
2023-03-03T09:01:05.512Z,100298.47
2023-03-03T09:03:33.561Z,100296.97
2023-03-03T09:06:01.265Z,100287.50
2023-03-03T09:08:28.946Z,100299.72
2023-03-03T09:10:56.643Z,100297.44
2023-03-03T09:13:24.464Z,100301.41
2023-03-03T09:15:52.253Z,100304.59
2023-03-03T09:18:23.536Z,100310.28
2023-03-03T09:20:52.504Z,100315.78
2023-03-03T09:23:31.563Z,100318.31
2023-03-03T09:26:00.259Z,100313.44
2023-03-03T09:28:30.187Z,100319.03
2023-03-03T09:30:59.296Z,100312.31
2023-03-03T09:33:31.044Z,100312.22
2023-03-03T09:36:05.116Z,100304.19
2023-03-03T09:38:34.877Z,100310.00
2023-03-03T09:41:25.507Z,100310.22
2023-03-03T09:44:05.943Z,100306.00
2023-03-03T09:46:42.302Z,100307.38
2023-03-03T09:49:22.238Z,100311.97
2023-03-03T09:52:16.434Z,100318.78
2023-03-03T09:54:55.830Z,100313.34
2023-03-03T09:57:30.654Z,100312.69
2023-03-03T10:00:21.323Z,100318.16
2023-03-03T10:03:04.848Z,100320.44
2023-03-03T10:05:46.536Z,100322.88
2023-03-03T10:08:31.752Z,100318.16
2023-03-03T10:11:05.341Z,100331.88
2023-03-03T10:13:44.635Z,100330.19
2023-03-03T10:16:33.588Z,100327.59
2023-03-03T10:19:04.495Z,100333.50
2023-03-03T10:21:40.796Z,100322.66
2023-03-03T10:24:24.722Z,100326.03
2023-03-03T10:27:13.472Z,100326.13
2023-03-03T10:29:51.346Z,100319.97
2023-03-03T10:32:41.273Z,100322.28
2023-03-03T10:35:42.504Z,100328.34
2023-03-03T10:38:38.141Z,100330.72
2023-03-03T10:41:21.330Z,100335.31
2023-03-03T10:44:05.232Z,100340.28
2023-03-03T10:46:51.614Z,100337.47
2023-03-03T10:49:31.940Z,100322.91
2023-03-03T10:52:26.719Z,100315.72
2023-03-03T10:55:11.278Z,100306.56
2023-03-03T10:57:48.075Z,100310.63
2023-03-03T11:00:22.598Z,100309.03
2023-03-03T11:03:22.391Z,100308.13
2023-03-03T11:05:54.851Z,100304.88
2023-03-03T11:08:29.470Z,100308.31
2023-03-03T11:11:11.128Z,100314.84
2023-03-03T11:13:47.009Z,100308.16
2023-03-03T11:16:30.786Z,100307.97
2023-03-03T11:19:11.541Z,100303.09
2023-03-03T11:21:48.105Z,100309.81
2023-03-03T11:24:32.965Z,100308.53
2023-03-03T11:27:15.471Z,100313.56
2023-03-03T11:29:57.372Z,100305.47
2023-03-03T11:32:33.581Z,100319.13
2023-03-03T11:35:20.661Z,100309.06
2023-03-03T11:37:58.172Z,100308.13
2023-03-03T11:40:28.800Z,100300.06
2023-03-03T11:43:06.962Z,100293.28
2023-03-03T11:45:41.310Z,100294.13
2023-03-03T11:48:16.872Z,100291.00
2023-03-03T11:50:53.803Z,100288.44
2023-03-03T11:53:32.935Z,100296.63
2023-03-03T11:56:08.543Z,100295.72
2023-03-03T11:58:44.852Z,100293.50
2023-03-03T12:01:21.010Z,100287.84
2023-03-03T12:03:55.225Z,100289.03
2023-03-03T12:06:31.580Z,100283.75
2023-03-03T12:09:17.272Z,100286.97
2023-03-03T12:11:52.208Z,100293.22
2023-03-03T12:14:37.322Z,100293.94
2023-03-03T12:17:13.218Z,100296.78
2023-03-03T12:19:51.740Z,100293.25
2023-03-03T12:22:31.178Z,100292.28
2023-03-03T12:25:13.226Z,100283.38
2023-03-03T12:27:49.825Z,100281.50
2023-03-03T12:30:34.681Z,100274.41
2023-03-03T12:33:20.062Z,100277.50
2023-03-03T12:35:56.596Z,100269.75
2023-03-03T12:38:35.251Z,100258.22
2023-03-03T12:41:09.868Z,100258.63
2023-03-03T12:43:54.161Z,100248.16
2023-03-03T12:46:30.068Z,100248.81
2023-03-03T12:48:57.756Z,100248.72
2023-03-03T12:51:38.216Z,100246.63
2023-03-03T12:54:25.964Z,100245.72
2023-03-03T12:56:56.946Z,100245.88
2023-03-03T12:59:36.231Z,100249.50
2023-03-03T13:02:26.514Z,100234.91
2023-03-03T13:05:01.831Z,100245.00
2023-03-03T13:07:38.436Z,100231.78
2023-03-03T13:10:17.866Z,100241.00
2023-03-03T13:12:50.007Z,100230.94
2023-03-03T13:15:31.616Z,100244.06
2023-03-03T13:18:21.205Z,100237.56
2023-03-03T13:20:52.330Z,100234.66
2023-03-03T13:23:32.855Z,100235.47
2023-03-03T13:26:07.765Z,100237.19
2023-03-03T13:28:41.608Z,100226.66
2023-03-03T13:31:15.468Z,100229.28
2023-03-03T13:33:53.632Z,100225.81
2023-03-03T13:36:26.633Z,100225.94
2023-03-03T13:38:58.993Z,100229.06
2023-03-03T13:41:32.336Z,100228.91
2023-03-03T13:44:05.038Z,100224.41
2023-03-03T13:46:41.850Z,100213.16
2023-03-03T13:49:31.816Z,100219.53
2023-03-03T13:52:04.524Z,100216.03
2023-03-03T13:54:59.378Z,100208.75
2023-03-03T13:57:53.879Z,100209.66
2023-03-03T14:00:31.848Z,100204.75
2023-03-03T14:03:28.969Z,100205.72
2023-03-03T14:06:03.642Z,100218.69
2023-03-03T14:09:02.205Z,100207.69
2023-03-03T14:11:37.117Z,100200.44
2023-03-03T14:14:14.820Z,100203.38
2023-03-03T14:16:51.950Z,100208.28
2023-03-03T14:19:24.865Z,100191.50
2023-03-03T14:22:06.869Z,100200.78
2023-03-03T14:25:01.597Z,100191.16
2023-03-03T14:27:36.308Z,100183.69
2023-03-03T14:30:31.068Z,100185.84
2023-03-03T14:33:07.001Z,100183.72
2023-03-03T14:35:36.680Z,100175.72
2023-03-03T14:38:11.297Z,100165.59
2023-03-03T14:40:42.853Z,100169.69
2023-03-03T14:43:24.086Z,100169.81
2023-03-03T14:45:52.754Z,100165.84
2023-03-03T14:48:22.700Z,100175.25
2023-03-03T14:50:53.381Z,100176.56
2023-03-03T14:53:33.987Z,100170.78
2023-03-03T14:56:23.642Z,100170.09
2023-03-03T14:58:52.150Z,100162.75
2023-03-03T15:01:30.947Z,100170.28
2023-03-03T15:04:03.486Z,100165.66
2023-03-03T15:06:41.626Z,100167.13
2023-03-03T15:09:43.293Z,100159.31
2023-03-03T15:12:24.479Z,100155.47
2023-03-03T15:14:53.739Z,100159.78
2023-03-03T15:17:28.738Z,100161.75
2023-03-03T15:20:14.697Z,100162.84
2023-03-03T15:22:48.652Z,100161.97
2023-03-03T15:25:34.778Z,100165.94
2023-03-03T15:28:23.514Z,100164.72
2023-03-03T15:30:56.399Z,100171.28
2023-03-03T15:33:30.560Z,100165.81
2023-03-03T15:36:05.122Z,100164.59
2023-03-03T15:38:44.937Z,100167.72
2023-03-03T15:41:26.538Z,100164.16
2023-03-03T15:44:13.388Z,100164.25
2023-03-03T15:46:54.817Z,100164.09
2023-03-03T15:49:42.335Z,100169.72
2023-03-03T15:52:23.438Z,100173.34
2023-03-03T15:55:01.586Z,100179.94
2023-03-03T15:57:39.503Z,100175.91
2023-03-03T16:00:55.777Z,100175.06
2023-03-03T16:03:29.596Z,100177.19
2023-03-03T16:06:02.301Z,100176.25
2023-03-03T16:08:37.620Z,100172.81
2023-03-03T16:11:11.832Z,100181.91
2023-03-03T16:13:53.000Z,100182.88
2023-03-03T16:16:32.150Z,100181.50
2023-03-03T16:19:12.727Z,100186.13
2023-03-03T16:22:08.921Z,100188.94
2023-03-03T16:24:51.433Z,100184.91
2023-03-03T16:27:24.621Z,100190.88
2023-03-03T16:30:05.231Z,100194.88
2023-03-03T16:32:41.820Z,100196.31
2023-03-03T16:35:23.295Z,100196.69
2023-03-03T16:37:59.086Z,100199.78
2023-03-03T16:40:30.804Z,100210.59
2023-03-03T16:43:06.841Z,100211.09
2023-03-03T16:45:36.452Z,100206.09
2023-03-03T16:48:27.273Z,100209.56
2023-03-03T16:51:12.921Z,100215.31
2023-03-03T16:53:52.047Z,100219.66
2023-03-03T16:56:24.121Z,100221.91
2023-03-03T16:59:14.820Z,100224.03
2023-03-03T17:01:50.597Z,100224.25
2023-03-03T17:04:35.637Z,100227.75
2023-03-03T17:07:13.719Z,100230.84
2023-03-03T17:09:53.086Z,100240.63
2023-03-03T17:12:38.931Z,100238.00
2023-03-03T17:15:16.334Z,100247.00
2023-03-03T17:17:48.084Z,100239.81
2023-03-03T17:20:31.167Z,100242.72
2023-03-03T17:23:23.844Z,100245.69
2023-03-03T17:26:00.239Z,100254.56
2023-03-03T17:28:40.119Z,100256.50
2023-03-03T17:31:14.372Z,100258.31
2023-03-03T17:34:06.741Z,100264.56
2023-03-03T17:36:49.417Z,100264.13
2023-03-03T17:39:36.012Z,100272.00
2023-03-03T17:42:10.526Z,100278.13
2023-03-03T17:44:47.437Z,100285.59
2023-03-03T17:47:32.140Z,100283.63
2023-03-03T17:50:19.512Z,100286.38
2023-03-03T17:53:14.483Z,100285.00
2023-03-03T17:56:04.563Z,100289.31
2023-03-03T17:59:04.989Z,100286.09
2023-03-03T18:01:50.402Z,100293.25
2023-03-03T18:04:31.584Z,100294.34
2023-03-03T18:07:23.657Z,100300.03
2023-03-03T18:10:26.187Z,100302.03
2023-03-03T18:13:02.885Z,100302.13
2023-03-03T18:15:45.244Z,100302.47
2023-03-03T18:18:32.020Z,100301.31
2023-03-03T18:21:08.968Z,100314.44
2023-03-03T18:23:42.644Z,100315.72
2023-03-03T18:26:41.248Z,100314.84
2023-03-03T18:29:20.385Z,100309.47
2023-03-03T18:32:01.257Z,100317.28
2023-03-03T18:34:35.695Z,100329.75
2023-03-03T18:37:08.439Z,100331.41
2023-03-03T18:39:43.343Z,100324.72
2023-03-03T18:42:37.669Z,100332.94
2023-03-03T18:45:44.869Z,100339.28
2023-03-03T18:48:13.965Z,100340.75
2023-03-03T18:50:43.510Z,100345.31
2023-03-03T18:53:26.756Z,100347.59
2023-03-03T18:55:56.460Z,100345.41
2023-03-03T18:58:52.787Z,100345.69
2023-03-03T19:01:43.181Z,100344.28
2023-03-03T19:04:19.211Z,100355.63
2023-03-03T19:07:10.011Z,100354.78
2023-03-03T19:09:57.073Z,100363.75
2023-03-03T19:12:47.317Z,100357.16
2023-03-03T19:15:56.436Z,100364.81
2023-03-03T19:18:27.349Z,100361.94
2023-03-03T19:20:59.426Z,100367.00
2023-03-03T19:23:48.796Z,100366.91
2023-03-03T19:26:50.589Z,100368.00
2023-03-03T19:29:40.233Z,100373.09
2023-03-03T19:32:29.377Z,100375.03
2023-03-03T19:35:09.247Z,100376.66
2023-03-03T19:37:48.259Z,100378.81
2023-03-03T19:40:22.984Z,100375.16
2023-03-03T19:43:02.095Z,100384.78
2023-03-03T19:45:49.137Z,100378.69
2023-03-03T19:48:28.266Z,100386.78
2023-03-03T19:51:02.865Z,100391.50
2023-03-03T19:53:38.117Z,100391.00
2023-03-03T19:56:20.412Z,100394.44
2023-03-03T19:59:01.953Z,100398.88
2023-03-03T20:01:42.229Z,100396.34
2023-03-03T20:04:54.035Z,100402.72
2023-03-03T20:07:31.380Z,100404.84
2023-03-03T20:10:08.574Z,100407.88
2023-03-03T20:12:53.817Z,100410.84
2023-03-03T20:15:29.732Z,100412.66
2023-03-03T20:18:36.552Z,100407.59
2023-03-03T20:21:14.082Z,100416.16
2023-03-03T20:23:58.101Z,100415.31
2023-03-03T20:26:33.108Z,100416.84
2023-03-03T20:29:28.720Z,100419.47
2023-03-03T20:32:06.269Z,100422.38
2023-03-03T20:34:41.984Z,100422.41
2023-03-03T20:37:15.599Z,100424.72
2023-03-03T20:39:55.947Z,100427.44
2023-03-03T20:42:39.078Z,100423.47
2023-03-03T20:45:28.388Z,100423.38
2023-03-03T20:48:11.648Z,100425.69
2023-03-03T20:50:50.290Z,100423.91
2023-03-03T20:53:27.556Z,100426.00
2023-03-03T20:56:05.588Z,100424.50
2023-03-03T20:58:44.013Z,100428.09
2023-03-03T21:01:15.641Z,100430.72
2023-03-03T21:03:45.308Z,100433.09
2023-03-03T21:06:15.605Z,100430.16
2023-03-03T21:08:53.300Z,100433.09
2023-03-03T21:11:23.254Z,100428.19
2023-03-03T21:13:54.075Z,100435.50
2023-03-03T21:16:33.130Z,100429.31
2023-03-03T21:19:03.297Z,100436.22
2023-03-03T21:21:33.274Z,100433.19
2023-03-03T21:24:02.578Z,100436.94
2023-03-03T21:26:52.097Z,100442.03
2023-03-03T21:29:22.674Z,100434.53
2023-03-03T21:31:51.738Z,100435.50
2023-03-03T21:34:30.688Z,100443.13
2023-03-03T21:37:00.290Z,100437.69
2023-03-03T21:39:32.158Z,100441.66
2023-03-03T21:42:03.190Z,100443.56
2023-03-03T21:44:40.128Z,100444.44
2023-03-03T21:47:10.161Z,100454.22
2023-03-03T21:49:42.010Z,100454.59
2023-03-03T21:52:10.105Z,100444.81
2023-03-03T21:54:39.540Z,100447.59
2023-03-03T21:57:07.512Z,100452.91
2023-03-03T21:59:35.299Z,100445.00
2023-03-03T22:02:02.908Z,100440.09
2023-03-03T22:04:30.788Z,100455.38
2023-03-03T22:06:58.437Z,100450.13
2023-03-03T22:09:26.843Z,100455.47
2023-03-03T22:11:55.849Z,100451.00
2023-03-03T22:14:23.553Z,100458.59
2023-03-03T22:16:51.211Z,100452.97
2023-03-03T22:19:18.788Z,100455.59
2023-03-03T22:21:47.690Z,100454.22
2023-03-03T22:24:15.563Z,100455.84
2023-03-03T22:26:43.264Z,100451.53
2023-03-03T22:29:12.440Z,100450.44
2023-03-03T22:31:40.400Z,100455.28
2023-03-03T22:34:08.288Z,100453.97
2023-03-03T22:36:35.948Z,100456.06
2023-03-03T22:39:03.579Z,100453.25
2023-03-03T22:41:31.228Z,100459.69
2023-03-03T22:43:58.926Z,100459.50
2023-03-03T22:46:28.076Z,100460.75
2023-03-03T22:48:55.945Z,100458.91
2023-03-03T22:51:23.561Z,100458.44
2023-03-03T22:53:51.152Z,100458.16
2023-03-03T22:56:18.767Z,100461.34
2023-03-03T22:58:46.373Z,100453.22
2023-03-03T23:01:14.065Z,100460.97
2023-03-03T23:03:43.368Z,100463.28
2023-03-03T23:06:11.004Z,100462.44
2023-03-03T23:08:38.589Z,100461.50
2023-03-03T23:11:06.349Z,100464.97
2023-03-03T23:13:35.143Z,100465.59
2023-03-03T23:16:03.023Z,100472.41
2023-03-03T23:18:31.021Z,100470.00
2023-03-03T23:21:00.052Z,100467.84
2023-03-03T23:23:29.473Z,100473.25
2023-03-03T23:25:57.156Z,100479.19
2023-03-03T23:28:24.894Z,100478.50
2023-03-03T23:30:52.576Z,100477.06
2023-03-03T23:33:20.396Z,100478.06
2023-03-03T23:35:49.791Z,100478.25
2023-03-03T23:38:18.802Z,100486.84
2023-03-03T23:40:47.633Z,100487.28
2023-03-03T23:43:15.369Z,100490.28
2023-03-03T23:45:43.034Z,100489.63
2023-03-03T23:48:11.177Z,100490.69
2023-03-03T23:50:39.261Z,100484.50
2023-03-03T23:53:08.073Z,100491.75
2023-03-03T23:55:37.560Z,100482.34
2023-03-03T23:58:05.864Z,100489.88
